createdAt,value
2018-06-23T00:00:46.643Z,13.10
2018-06-23T00:03:14.624Z,13.00
2018-06-23T00:05:42.610Z,12.90
2018-06-23T00:08:10.890Z,12.90
2018-06-23T00:10:38.899Z,12.80
2018-06-23T00:13:06.872Z,12.80
2018-06-23T00:15:34.821Z,12.80
2018-06-23T00:18:02.756Z,12.80
2018-06-23T00:20:30.786Z,12.80
2018-06-23T00:22:58.740Z,12.70
2018-06-23T00:25:32.212Z,12.70
2018-06-23T00:28:00.176Z,12.70
2018-06-23T00:30:28.167Z,12.60
2018-06-23T00:32:56.137Z,12.60
2018-06-23T00:35:24.098Z,12.50
2018-06-23T00:37:52.821Z,12.50
2018-06-23T00:40:20.757Z,12.40
2018-06-23T00:42:48.776Z,12.40
2018-06-23T00:45:16.724Z,12.40
2018-06-23T00:47:44.663Z,12.50
2018-06-23T00:50:12.591Z,12.50
2018-06-23T00:52:40.584Z,12.50
2018-06-23T00:55:08.585Z,12.40
2018-06-23T00:57:36.516Z,12.40
2018-06-23T01:00:05.671Z,12.40
2018-06-23T01:02:33.643Z,12.50
2018-06-23T01:05:01.577Z,12.50
2018-06-23T01:07:29.525Z,12.50
2018-06-23T01:09:57.476Z,12.50
2018-06-23T01:12:25.470Z,12.50
2018-06-23T01:14:53.581Z,12.40
2018-06-23T01:17:21.731Z,12.40
2018-06-23T01:19:49.683Z,12.40
2018-06-23T01:22:17.699Z,12.40
2018-06-23T01:24:45.636Z,12.30
2018-06-23T01:27:13.612Z,12.30
2018-06-23T01:29:41.569Z,12.30
2018-06-23T01:32:09.527Z,12.30
2018-06-23T01:34:37.556Z,12.20
2018-06-23T01:37:05.508Z,12.20
2018-06-23T01:39:33.476Z,12.20
2018-06-23T01:42:01.452Z,12.20
2018-06-23T01:44:29.391Z,12.20
2018-06-23T01:46:57.356Z,12.10
2018-06-23T01:49:25.418Z,12.10
2018-06-23T01:51:54.343Z,12.00
2018-06-23T01:54:22.383Z,12.00
2018-06-23T01:56:50.319Z,11.90
2018-06-23T01:59:18.297Z,11.90
2018-06-23T02:01:46.295Z,11.90
2018-06-23T02:04:14.216Z,11.90
2018-06-23T02:06:42.148Z,11.90
2018-06-23T02:09:10.777Z,11.90
2018-06-23T02:11:38.772Z,11.90
2018-06-23T02:14:12.280Z,11.90
2018-06-23T02:16:45.664Z,11.80
2018-06-23T02:19:19.093Z,11.80
2018-06-23T02:22:51.280Z,11.80
2018-06-23T02:25:24.696Z,11.80
2018-06-23T02:27:58.289Z,11.80
2018-06-23T02:30:34.520Z,11.80
2018-06-23T02:33:08.050Z,11.80
2018-06-23T02:35:35.969Z,11.80
2018-06-23T02:38:03.912Z,11.80
2018-06-23T02:40:31.957Z,11.80
2018-06-23T02:42:59.917Z,11.80
2018-06-23T02:45:27.897Z,11.90
2018-06-23T02:47:55.874Z,11.90
2018-06-23T02:50:24.356Z,11.90
2018-06-23T02:55:20.088Z,11.90
2018-06-23T02:57:48.118Z,11.90
2018-06-23T03:00:16.061Z,11.90
2018-06-23T03:05:11.822Z,11.90
2018-06-23T03:07:39.789Z,11.90
2018-06-23T03:10:07.808Z,11.80
2018-06-23T03:12:35.733Z,11.90
2018-06-23T03:15:03.699Z,11.90
2018-06-23T03:17:31.676Z,11.90
2018-06-23T03:19:59.646Z,11.90
2018-06-23T03:22:27.636Z,11.90
2018-06-23T03:24:56.093Z,11.90
2018-06-23T03:27:24.072Z,12.00
2018-06-23T03:29:52.004Z,12.00
2018-06-23T03:32:19.956Z,12.00
2018-06-23T03:34:47.921Z,12.00
2018-06-23T03:37:15.917Z,12.00
2018-06-23T03:39:43.892Z,12.00
2018-06-23T03:42:11.817Z,11.90
2018-06-23T03:44:39.846Z,11.90
2018-06-23T03:47:07.805Z,11.90
2018-06-23T03:49:35.789Z,11.90
2018-06-23T03:52:03.745Z,11.90
2018-06-23T03:54:31.881Z,11.90
2018-06-23T03:56:59.819Z,11.90
2018-06-23T03:59:27.800Z,11.90
2018-06-23T04:01:56.756Z,11.90
2018-06-23T04:04:24.851Z,11.90
2018-06-23T04:06:52.923Z,11.80
2018-06-23T04:09:20.896Z,11.70
2018-06-23T04:11:48.845Z,11.70
2018-06-23T04:14:16.852Z,11.60
2018-06-23T04:16:44.848Z,11.60
2018-06-23T04:19:12.760Z,11.50
2018-06-23T04:21:40.712Z,11.40
2018-06-23T04:24:08.783Z,11.40
2018-06-23T04:26:36.767Z,11.30
2018-06-23T04:29:04.960Z,11.30
2018-06-23T04:31:32.891Z,11.30
2018-06-23T04:34:00.820Z,11.30
2018-06-23T04:36:28.784Z,11.30
2018-06-23T04:38:57.365Z,11.30
2018-06-23T04:41:25.370Z,11.30
2018-06-23T04:43:53.448Z,11.40
2018-06-23T04:46:21.424Z,11.40
2018-06-23T04:48:49.416Z,11.40
2018-06-23T04:51:17.371Z,11.40
2018-06-23T04:53:49.068Z,11.30
2018-06-23T04:56:17.229Z,11.30
2018-06-23T04:58:45.232Z,11.40
2018-06-23T05:01:13.184Z,11.30
2018-06-23T05:03:41.156Z,11.30
2018-06-23T05:06:09.104Z,11.30
2018-06-23T05:08:37.941Z,11.30
2018-06-23T05:13:33.807Z,11.30
2018-06-23T05:16:01.748Z,11.40
2018-06-23T05:18:29.796Z,11.40
2018-06-23T05:20:58.195Z,11.50
2018-06-23T05:23:26.280Z,11.50
2018-06-23T05:25:54.174Z,11.50
2018-06-23T05:28:22.231Z,11.50
2018-06-23T05:30:50.312Z,11.50
2018-06-23T05:33:19.872Z,11.50
2018-06-23T05:35:47.813Z,11.60
2018-06-23T05:38:15.796Z,11.50
2018-06-23T05:40:43.752Z,11.50
2018-06-23T05:43:11.720Z,11.50
2018-06-23T05:45:39.833Z,11.60
2018-06-23T05:48:07.907Z,11.60
2018-06-23T05:50:35.892Z,11.60
2018-06-23T05:53:04.008Z,11.70
2018-06-23T05:55:31.983Z,11.70
2018-06-23T05:57:59.960Z,11.70
2018-06-23T06:00:28.978Z,11.70
2018-06-23T06:02:56.943Z,11.60
2018-06-23T06:05:25.030Z,11.70
2018-06-23T06:07:52.995Z,11.70
2018-06-23T06:10:20.962Z,11.70
2018-06-23T06:12:48.883Z,11.80
2018-06-23T06:15:16.881Z,11.80
2018-06-23T06:17:44.844Z,11.90
2018-06-23T06:20:13.956Z,12.00
2018-06-23T06:22:43.041Z,12.00
2018-06-23T06:25:11.633Z,12.00
2018-06-23T06:27:39.729Z,12.00
2018-06-23T06:30:09.058Z,12.10
2018-06-23T06:32:37.018Z,12.10
2018-06-23T06:35:05.700Z,12.00
2018-06-23T06:37:33.701Z,12.10
2018-06-23T06:40:01.780Z,12.10
2018-06-23T06:42:29.744Z,12.30
2018-06-23T06:44:57.764Z,12.60
2018-06-23T06:47:25.785Z,12.50
2018-06-23T06:49:53.796Z,12.40
2018-06-23T06:52:21.771Z,12.40
2018-06-23T06:54:49.717Z,12.30
2018-06-23T06:57:17.769Z,12.30
2018-06-23T06:59:45.824Z,12.30
2018-06-23T07:02:13.784Z,12.30
2018-06-23T07:04:41.747Z,12.30
2018-06-23T07:07:09.746Z,12.30
2018-06-23T07:09:37.670Z,12.30
2018-06-23T07:12:05.943Z,12.30
2018-06-23T07:14:33.915Z,12.30
2018-06-23T07:17:01.907Z,12.40
2018-06-23T07:19:30.696Z,12.40
2018-06-23T07:21:58.665Z,12.40
2018-06-23T07:24:26.844Z,12.40
2018-06-23T07:26:54.809Z,12.40
2018-06-23T07:29:22.827Z,12.40
2018-06-23T07:31:50.884Z,12.50
2018-06-23T07:34:18.843Z,12.50
2018-06-23T07:36:46.777Z,12.60
2018-06-23T07:39:14.774Z,12.70
2018-06-23T07:41:42.845Z,12.80
2018-06-23T07:44:10.815Z,12.70
2018-06-23T07:46:38.791Z,12.70
2018-06-23T07:49:06.780Z,12.60
2018-06-23T07:51:34.725Z,12.70
2018-06-23T07:54:02.684Z,12.70
2018-06-23T07:56:31.347Z,12.80
2018-06-23T07:58:59.319Z,12.90
2018-06-23T08:01:27.404Z,13.00
2018-06-23T08:03:55.595Z,13.20
2018-06-23T08:06:23.656Z,13.30
2018-06-23T08:08:51.600Z,13.30
2018-06-23T08:11:19.532Z,13.40
2018-06-23T08:13:47.476Z,13.60
2018-06-23T08:16:15.442Z,13.70
2018-06-23T08:18:43.472Z,13.80
2018-06-23T08:21:11.529Z,14.00
2018-06-23T08:23:39.539Z,14.10
2018-06-23T08:26:07.502Z,14.20
2018-06-23T08:28:36.258Z,14.30
2018-06-23T08:31:04.816Z,14.40
2018-06-23T08:33:32.742Z,14.40
2018-06-23T08:36:00.787Z,14.50
2018-06-23T08:38:28.736Z,14.60
2018-06-23T08:43:24.492Z,14.90
2018-06-23T08:45:52.457Z,15.10
2018-06-23T08:48:20.414Z,15.30
2018-06-23T08:50:48.361Z,15.30
2018-06-23T08:53:16.547Z,15.20
2018-06-23T08:55:44.541Z,15.20
2018-06-23T08:58:12.537Z,15.20
2018-06-23T09:00:40.481Z,15.20
2018-06-23T09:03:08.403Z,15.20
2018-06-23T09:05:36.368Z,15.20
2018-06-23T09:08:04.333Z,15.20
2018-06-23T09:10:32.577Z,15.30
2018-06-23T09:13:00.703Z,15.30
2018-06-23T09:15:28.684Z,15.30
2018-06-23T09:17:56.760Z,15.30
2018-06-23T09:20:24.868Z,15.30
2018-06-23T09:22:52.835Z,15.50
2018-06-23T09:25:20.815Z,15.70
2018-06-23T09:27:48.780Z,15.80
2018-06-23T09:32:44.563Z,15.90
2018-06-23T09:35:12.560Z,16.00
2018-06-23T09:37:40.523Z,16.00
2018-06-23T09:40:08.524Z,16.10
2018-06-23T09:42:36.489Z,16.00
2018-06-23T09:45:04.563Z,15.90
2018-06-23T09:47:33.464Z,15.90
2018-06-23T09:50:01.457Z,16.00
2018-06-23T09:52:29.550Z,16.00
2018-06-23T09:54:57.626Z,16.00
2018-06-23T09:57:25.601Z,16.10
2018-06-23T09:59:53.615Z,15.90
2018-06-23T10:02:21.673Z,15.70
2018-06-23T10:04:49.643Z,15.70
2018-06-23T10:07:17.610Z,15.70
2018-06-23T10:09:45.509Z,15.90
2018-06-23T10:12:13.734Z,16.10
2018-06-23T10:14:41.691Z,16.50
2018-06-23T10:17:09.680Z,16.80
2018-06-23T10:19:37.640Z,16.80
2018-06-23T10:22:05.652Z,16.70
2018-06-23T10:24:34.029Z,16.70
2018-06-23T10:27:02.006Z,16.60
2018-06-23T10:29:29.972Z,16.40
2018-06-23T10:31:57.932Z,16.30
2018-06-23T10:34:25.970Z,16.20
2018-06-23T10:36:54.012Z,16.30
2018-06-23T10:39:21.963Z,16.30
2018-06-23T10:41:49.972Z,16.40
2018-06-23T10:44:17.948Z,16.50
2018-06-23T10:46:46.042Z,16.70
2018-06-23T10:49:13.996Z,16.60
2018-06-23T10:51:42.012Z,16.60
2018-06-23T10:54:09.987Z,16.40
2018-06-23T10:56:37.986Z,16.30
2018-06-23T10:59:05.945Z,16.10
2018-06-23T11:01:34.593Z,16.00
2018-06-23T11:04:02.542Z,15.90
2018-06-23T11:06:30.548Z,16.00
2018-06-23T11:08:58.503Z,16.10
2018-06-23T11:11:26.589Z,16.10
2018-06-23T11:13:54.549Z,16.10
2018-06-23T11:16:22.531Z,16.10
2018-06-23T11:18:50.692Z,16.30
2018-06-23T11:21:18.644Z,16.30
2018-06-23T11:23:46.581Z,16.30
2018-06-23T11:26:14.495Z,16.30
2018-06-23T11:28:42.543Z,16.30
2018-06-23T11:31:10.478Z,16.30
2018-06-23T11:33:38.452Z,16.20
2018-06-23T11:36:06.385Z,16.20
2018-06-23T11:38:35.232Z,16.30
2018-06-23T11:41:03.203Z,16.30
2018-06-23T11:43:31.168Z,16.30
2018-06-23T11:45:59.129Z,16.10
2018-06-23T11:48:27.149Z,16.00
2018-06-23T11:50:55.090Z,15.90
2018-06-23T11:53:23.046Z,15.90
2018-06-23T11:55:50.963Z,15.80
2018-06-23T11:58:18.907Z,15.70
2018-06-23T12:00:46.923Z,15.80
2018-06-23T12:03:14.959Z,15.70
2018-06-23T12:05:42.844Z,15.70
2018-06-23T12:08:10.843Z,15.80
2018-06-23T12:10:38.848Z,15.70
2018-06-23T12:13:06.956Z,15.80
2018-06-23T12:15:35.567Z,15.80
2018-06-23T12:18:03.704Z,15.80
2018-06-23T12:20:31.783Z,15.70
2018-06-23T12:22:59.716Z,15.60
2018-06-23T12:25:27.712Z,15.60
2018-06-23T12:27:55.731Z,15.50
2018-06-23T12:30:23.739Z,15.50
2018-06-23T12:32:51.632Z,15.60
2018-06-23T12:35:19.772Z,15.60
2018-06-23T12:37:47.855Z,15.70
2018-06-23T12:40:15.806Z,15.80
2018-06-23T12:42:43.760Z,15.80
2018-06-23T12:45:11.787Z,15.90
2018-06-23T12:47:39.746Z,15.90
2018-06-23T12:50:07.717Z,15.90
2018-06-23T12:52:36.076Z,16.00
2018-06-23T12:55:04.063Z,16.00
2018-06-23T12:57:32.003Z,15.90
2018-06-23T12:59:59.991Z,15.90
2018-06-23T13:02:27.980Z,15.90
2018-06-23T13:04:56.041Z,15.90
2018-06-23T13:07:23.945Z,15.90
2018-06-23T13:09:51.931Z,15.80
2018-06-23T13:12:19.925Z,15.70
2018-06-23T13:14:47.819Z,15.60
2018-06-23T13:17:15.795Z,15.60
2018-06-23T13:19:43.764Z,15.60
2018-06-23T13:22:11.832Z,15.70
2018-06-23T13:24:39.790Z,15.60
2018-06-23T13:27:07.746Z,15.70
2018-06-23T13:29:36.604Z,15.70
2018-06-23T13:32:04.560Z,15.60
2018-06-23T13:34:32.481Z,15.60
2018-06-23T13:37:00.513Z,15.70
2018-06-23T13:39:28.528Z,15.80
2018-06-23T13:41:56.499Z,15.90
2018-06-23T13:44:24.450Z,15.90
2018-06-23T13:46:52.561Z,16.00
2018-06-23T13:49:20.483Z,16.10
2018-06-23T13:51:48.540Z,16.10
2018-06-23T13:54:16.463Z,16.30
2018-06-23T13:56:44.407Z,16.30
2018-06-23T13:59:12.348Z,16.30
2018-06-23T14:01:40.273Z,16.30
2018-06-23T14:04:08.342Z,16.20
2018-06-23T14:06:37.222Z,16.20
2018-06-23T14:09:07.994Z,16.10
2018-06-23T14:11:36.061Z,16.00
2018-06-23T14:14:03.997Z,15.90
2018-06-23T14:16:31.951Z,15.90
2018-06-23T14:18:59.996Z,15.90
2018-06-23T14:21:27.942Z,16.10
2018-06-23T14:23:55.966Z,16.20
2018-06-23T14:26:24.051Z,16.40
2018-06-23T14:28:51.992Z,16.60
2018-06-23T14:31:20.035Z,16.80
2018-06-23T14:33:48.099Z,16.70
2018-06-23T14:36:16.026Z,16.70
2018-06-23T14:38:43.994Z,16.60
2018-06-23T14:41:12.051Z,16.50
2018-06-23T14:43:40.029Z,16.40
2018-06-23T14:46:07.980Z,16.30
2018-06-23T14:48:35.936Z,16.20
2018-06-23T14:51:03.962Z,16.10
2018-06-23T14:53:31.896Z,16.10
2018-06-23T14:55:59.838Z,16.10
2018-06-23T14:58:27.873Z,16.10
2018-06-23T15:00:55.836Z,16.00
2018-06-23T15:03:23.865Z,16.00
2018-06-23T15:05:51.885Z,16.00
2018-06-23T15:08:31.234Z,16.10
2018-06-23T15:11:10.747Z,16.10
2018-06-23T15:13:38.682Z,16.10
2018-06-23T15:16:06.711Z,16.10
2018-06-23T15:18:34.655Z,16.10
2018-06-23T15:21:02.591Z,16.10
2018-06-23T15:23:30.557Z,16.10
2018-06-23T15:25:58.512Z,16.10
2018-06-23T15:28:26.512Z,16.10
2018-06-23T15:30:54.448Z,16.10
2018-06-23T15:33:22.412Z,16.00
2018-06-23T15:35:50.464Z,16.10
2018-06-23T15:38:18.460Z,16.20
2018-06-23T15:40:46.429Z,16.30
2018-06-23T15:43:14.347Z,16.30
2018-06-23T15:45:42.332Z,16.30
2018-06-23T15:48:10.226Z,16.30
2018-06-23T15:50:38.195Z,16.20
2018-06-23T15:53:06.255Z,16.20
2018-06-23T15:55:34.150Z,16.20
2018-06-23T15:58:02.089Z,16.20
2018-06-23T16:00:30.064Z,16.20
2018-06-23T16:02:58.006Z,16.10
2018-06-23T16:05:26.033Z,16.10
2018-06-23T16:07:53.974Z,16.00
2018-06-23T16:10:23.633Z,16.00
2018-06-23T16:12:51.814Z,16.00
2018-06-23T16:15:19.734Z,15.90
2018-06-23T16:17:47.722Z,16.00
2018-06-23T16:20:15.820Z,15.90
2018-06-23T16:22:44.500Z,15.90
2018-06-23T16:25:12.588Z,15.90
2018-06-23T16:27:40.541Z,15.90
2018-06-23T16:30:08.518Z,16.00
2018-06-23T16:32:36.791Z,16.00
2018-06-23T16:35:05.028Z,15.90
2018-06-23T16:37:32.892Z,15.90
2018-06-23T16:40:01.048Z,15.90
2018-06-23T16:42:29.446Z,15.90
2018-06-23T16:44:57.625Z,15.80
2018-06-23T16:47:25.592Z,15.90
2018-06-23T16:49:53.555Z,15.90
2018-06-23T16:52:21.531Z,15.80
2018-06-23T16:54:49.485Z,15.80
2018-06-23T16:57:17.449Z,15.80
2018-06-23T16:59:45.714Z,15.70
2018-06-23T17:02:13.725Z,15.70
2018-06-23T17:04:41.774Z,15.70
2018-06-23T17:07:09.713Z,15.70
2018-06-23T17:09:37.736Z,15.70
2018-06-23T17:12:05.670Z,15.70
2018-06-23T17:14:33.701Z,15.70
2018-06-23T17:17:01.686Z,15.70
2018-06-23T17:19:29.713Z,15.60
2018-06-23T17:21:57.639Z,15.60
2018-06-23T17:24:25.580Z,15.60
2018-06-23T17:26:53.620Z,15.60
2018-06-23T17:29:21.559Z,15.60
2018-06-23T17:31:49.483Z,15.60
2018-06-23T17:34:17.556Z,15.60
2018-06-23T17:36:45.520Z,15.60
2018-06-23T17:39:13.617Z,15.50
2018-06-23T17:44:09.660Z,15.50
2018-06-23T17:46:37.652Z,15.50
2018-06-23T17:49:05.846Z,15.50
2018-06-23T17:51:33.847Z,15.40
2018-06-23T17:56:29.689Z,15.40
2018-06-23T17:58:57.722Z,15.30
2018-06-23T18:01:25.699Z,15.30
2018-06-23T18:03:53.670Z,15.20
2018-06-23T18:06:21.685Z,15.20
2018-06-23T18:08:49.692Z,15.20
2018-06-23T18:11:17.652Z,15.10
2018-06-23T18:13:45.697Z,15.10
2018-06-23T18:16:13.677Z,15.10
2018-06-23T18:18:41.600Z,15.10
2018-06-23T18:21:09.589Z,15.00
2018-06-23T18:23:37.548Z,15.00
2018-06-23T18:26:05.509Z,15.00
2018-06-23T18:28:33.451Z,15.00
2018-06-23T18:31:01.420Z,14.90
2018-06-23T18:33:29.385Z,14.90
2018-06-23T18:35:57.496Z,14.80
2018-06-23T18:38:25.468Z,14.80
2018-06-23T18:40:53.415Z,14.70
2018-06-23T18:43:21.431Z,14.70
2018-06-23T18:45:49.408Z,14.70
2018-06-23T18:48:17.597Z,14.60
2018-06-23T18:50:45.551Z,14.60
2018-06-23T18:53:13.473Z,14.60
2018-06-23T18:55:41.412Z,14.60
2018-06-23T18:58:09.742Z,14.50
2018-06-23T19:00:37.692Z,14.50
2018-06-23T19:03:05.653Z,14.50
2018-06-23T19:05:33.672Z,14.50
2018-06-23T19:08:01.628Z,14.50
2018-06-23T19:10:29.642Z,14.50
2018-06-23T19:12:57.616Z,14.50
2018-06-23T19:15:25.568Z,14.50
2018-06-23T19:17:53.526Z,14.50
2018-06-23T19:20:21.553Z,14.50
2018-06-23T19:22:49.441Z,14.50
2018-06-23T19:25:17.385Z,14.50
2018-06-23T19:27:45.371Z,14.50
2018-06-23T19:32:41.074Z,14.50
2018-06-23T19:35:09.957Z,14.50
2018-06-23T19:37:37.900Z,14.50
2018-06-23T19:40:05.836Z,14.50
2018-06-23T19:42:33.796Z,14.50
2018-06-23T19:45:01.764Z,14.50
2018-06-23T19:47:29.752Z,14.50
2018-06-23T19:49:57.670Z,14.50
2018-06-23T19:52:25.604Z,14.50
2018-06-23T19:54:53.587Z,14.50
2018-06-23T19:57:21.539Z,14.50
2018-06-23T19:59:49.561Z,14.50
2018-06-23T20:02:17.504Z,14.40
2018-06-23T20:07:13.321Z,14.40
2018-06-23T20:09:41.264Z,14.40
2018-06-23T20:12:09.260Z,14.40
2018-06-23T20:14:37.189Z,14.50
2018-06-23T20:17:05.372Z,14.40
2018-06-23T20:19:33.401Z,14.40
2018-06-23T20:22:01.404Z,14.50
2018-06-23T20:24:29.476Z,14.40
2018-06-23T20:26:57.540Z,14.40
2018-06-23T20:29:25.545Z,14.40
2018-06-23T20:34:21.405Z,14.40
2018-06-23T20:36:49.358Z,14.40
2018-06-23T20:39:17.299Z,14.40
2018-06-23T20:41:45.310Z,14.40
2018-06-23T20:44:13.276Z,14.40
2018-06-23T20:46:41.252Z,14.40
2018-06-23T20:49:09.212Z,14.40
2018-06-23T20:51:37.165Z,14.40
2018-06-23T20:54:05.136Z,14.40
2018-06-23T20:56:33.076Z,14.40
2018-06-23T20:59:01.021Z,14.30
2018-06-23T21:01:28.990Z,14.40
2018-06-23T21:06:24.927Z,14.40
2018-06-23T21:08:52.885Z,14.40
2018-06-23T21:11:20.820Z,14.40
2018-06-23T21:13:48.825Z,14.40
2018-06-23T21:16:16.754Z,14.40
2018-06-23T21:18:44.854Z,14.40
2018-06-23T21:21:12.796Z,14.40
2018-06-23T21:23:41.292Z,14.30
2018-06-23T21:26:10.189Z,14.30
2018-06-23T21:28:38.212Z,14.30
2018-06-23T21:31:06.195Z,14.30
2018-06-23T21:33:34.138Z,14.30
2018-06-23T21:36:02.061Z,14.30
2018-06-23T21:38:30.042Z,14.30
2018-06-23T21:40:58.030Z,14.30
2018-06-23T21:43:26.009Z,14.30
2018-06-23T21:45:53.919Z,14.30
2018-06-23T21:48:21.868Z,14.30
2018-06-23T21:50:49.849Z,14.30
2018-06-23T21:53:17.940Z,14.20
2018-06-23T21:55:45.896Z,14.20
2018-06-23T21:58:13.869Z,14.20
2018-06-23T22:00:43.308Z,14.20
2018-06-23T22:08:09.413Z,14.20
2018-06-23T22:10:37.378Z,14.20
2018-06-23T22:13:05.560Z,14.20
2018-06-23T22:18:01.292Z,14.10
2018-06-23T22:20:29.258Z,14.10
2018-06-23T22:22:57.304Z,14.10
2018-06-23T22:25:25.274Z,14.10
2018-06-23T22:27:53.188Z,14.10
2018-06-23T22:30:21.872Z,14.00
2018-06-23T22:32:50.031Z,14.00
2018-06-23T22:35:18.004Z,14.00
2018-06-23T22:37:45.968Z,14.00
2018-06-23T22:42:41.920Z,14.00
2018-06-23T22:45:09.853Z,13.90
2018-06-23T22:47:37.912Z,13.90
2018-06-23T22:50:08.572Z,13.90
2018-06-23T22:52:36.735Z,13.90
2018-06-23T22:55:04.823Z,13.90
2018-06-23T22:57:32.786Z,13.90
2018-06-23T23:00:00.776Z,13.80
2018-06-23T23:02:28.760Z,13.80
2018-06-23T23:04:56.734Z,13.80
2018-06-23T23:09:52.538Z,13.70
2018-06-23T23:12:20.477Z,13.70
2018-06-23T23:14:48.409Z,13.70
2018-06-23T23:17:16.364Z,13.70
2018-06-23T23:19:44.304Z,13.70
2018-06-23T23:22:12.560Z,13.70
2018-06-23T23:24:40.504Z,13.60
2018-06-23T23:27:08.445Z,13.60
2018-06-23T23:32:04.200Z,13.60
2018-06-23T23:36:59.936Z,13.50
2018-06-23T23:39:27.943Z,13.40
2018-06-23T23:41:55.884Z,13.40
2018-06-23T23:44:23.828Z,13.30
2018-06-23T23:46:51.792Z,13.20
2018-06-23T23:49:19.752Z,13.20
2018-06-23T23:51:47.713Z,13.20
2018-06-23T23:54:15.770Z,13.10
2018-06-23T23:56:43.729Z,13.10
